EINXB EIKK-EIKK

Flight info

Callsign EINXB
Flight time 0h 10m
Altitude 4000
Route EIWF
Aircraft E300/L-SFG/C

Departure

Time 2026-04-12 22:33
Airport Kilkenny Airport (EIKK)

Arrival

Time 2026-04-12 22:43
Airport Kilkenny Airport (EIKK)
Time Latitude Longitude Altitude Speed Heading
2026-04-12 22:31 52.65007 -7.30320 267 ft 0 kts 75°
2026-04-12 22:32 52.65013 -7.30275 268 ft 19 kts 82°
2026-04-12 22:33 52.65091 -7.29649 287 ft 109 kts 76°
2026-04-12 22:33 52.65281 -7.28207 788 ft 143 kts 78°
2026-04-12 22:33 52.65567 -7.26502 686 ft 168 kts 75°
2026-04-12 22:33 52.65839 -7.24764 1210 ft 148 kts 77°
2026-04-12 22:34 52.65896 -7.24032 2960 ft 14 kts 135°
2026-04-12 22:34 52.66135 -7.24142 1423 ft 126 kts 310°
2026-04-12 22:34 52.65977 -7.25458 977 ft 163 kts 240°
2026-04-12 22:34 52.65465 -7.26976 737 ft 122 kts 248°
2026-04-12 22:35 52.65286 -7.28191 429 ft 109 kts 255°
2026-04-12 22:35 52.65114 -7.29399 321 ft 107 kts 266°
2026-04-12 22:35 52.64981 -7.30562 475 ft 120 kts 260°
2026-04-12 22:35 52.64693 -7.31935 935 ft 148 kts 225°
2026-04-12 22:36 52.64072 -7.33227 813 ft 162 kts 277°
2026-04-12 22:36 52.64908 -7.34063 768 ft 153 kts 36°
2026-04-12 22:36 52.64682 -7.32638 1173 ft 158 kts 81°
2026-04-12 22:36 52.64934 -7.30839 563 ft 152 kts 78°
2026-04-12 22:37 52.65117 -7.29469 303 ft 131 kts 78°
2026-04-12 22:37 52.65226 -7.28565 1801 ft 69 kts 69°
2026-04-12 22:37 52.65214 -7.29042 355 ft 131 kts 240°
2026-04-12 22:37 52.64760 -7.30189 975 ft 115 kts 252°
2026-04-12 22:38 52.64793 -7.30328 2011 ft 50 kts 329°
2026-04-12 22:38 52.64972 -7.29557 620 ft 120 kts 90°
2026-04-12 22:38 52.65238 -7.29662 533 ft 111 kts 278°
2026-04-12 22:38 52.65522 -7.31093 960 ft 141 kts 303°
2026-04-12 22:39 52.66063 -7.32359 1894 ft 135 kts 315°
2026-04-12 22:39 52.66058 -7.33752 2570 ft 148 kts 236°
2026-04-12 22:39 52.65171 -7.34084 2516 ft 149 kts 145°
2026-04-12 22:40 52.64803 -7.31675 1959 ft 125 kts 79°
2026-04-12 22:40 52.64897 -7.30739 3059 ft 31 kts 88°
2026-04-12 22:40 52.64912 -7.30608 1727 ft 61 kts 18°
2026-04-12 22:40 52.64986 -7.30269 331 ft 115 kts 60°
2026-04-12 22:41 52.65210 -7.29071 476 ft 95 kts 61°
2026-04-12 22:41 52.65658 -7.27793 814 ft 106 kts 97°
2026-04-12 22:41 52.65597 -7.27442 747 ft 126 kts 219°
2026-04-12 22:41 52.65133 -7.28599 510 ft 118 kts 269°
2026-04-12 22:42 52.65088 -7.29677 284 ft 80 kts 259°
2026-04-12 22:42 52.65025 -7.30996 575 ft 127 kts 269°
2026-04-12 22:42 52.64964 -7.32742 497 ft 157 kts 268°
2026-04-12 22:42 52.64965 -7.33249 879 ft 101 kts 163°
2026-04-12 22:43 52.64802 -7.31844 479 ft 156 kts 91°
2026-04-12 22:43 52.64991 -7.30456 282 ft 98 kts 75°
2026-04-12 22:43 52.65091 -7.29638 281 ft 52 kts 83°
2026-04-12 22:43 52.65113 -7.29429 284 ft 0 kts 79°
2026-04-12 22:44 52.65131 -7.29440 284 ft 10 kts 243°
2026-04-12 22:44 52.65039 -7.30180 270 ft 128 kts 252°
2026-04-12 22:45 52.64911 -7.30542 1130 ft 92 kts 96°
2026-04-12 22:45 52.65113 -7.29449 340 ft 109 kts 97°
2026-04-12 22:45 52.65106 -7.29303 285 ft 0 kts 246°